Time;durP1;ratioP1;P1;durP2;ratioP2;P2;SDS_P1;SDS_P2;PMS_P1;PMS_P2;Temp;Humidity;BMP_temperature;BMP_pressure;BME280_temperature;BME280_humidity;BME280_pressure;Samples;Min_cycle;Max_cycle;Signal;HPM_P1;HPM_P2
2021/09/05 04:02:37;;;;;;;20.35;9.82;;;11.40;99.90;;;;;;6153506;23;20280;-71
2021/09/05 04:05:06;;;;;;;16.45;10.57;;;11.40;99.90;;;;;;6155932;23;20179;-71
2021/09/05 04:07:34;;;;;;;13.82;9.45;;;11.40;99.90;;;;;;6155990;23;20184;-71
2021/09/05 04:10:09;;;;;;;13.32;9.02;;;11.40;99.90;;;;;;6155985;23;20648;-71
2021/09/05 04:12:36;;;;;;;15.43;9.48;;;11.40;99.90;;;;;;6126231;23;20167;-71
2021/09/05 04:15:03;;;;;;;17.25;10.10;;;11.40;99.90;;;;;;6126468;23;20247;-71
2021/09/05 04:17:30;;;;;;;14.68;11.20;;;11.30;99.90;;;;;;6126420;23;20511;-71
2021/09/05 04:19:59;;;;;;;19.05;11.35;;;11.30;99.90;;;;;;6126401;23;20180;-71
2021/09/05 04:22:26;;;;;;;11.48;8.45;;;11.30;99.90;;;;;;6126465;23;20532;-71
2021/09/05 04:24:52;;;;;;;12.70;8.90;;;11.30;99.90;;;;;;6126810;23;20180;-71
2021/09/05 04:27:19;;;;;;;15.48;9.05;;;11.30;99.90;;;;;;6126767;23;20190;-70
2021/09/05 04:29:46;;;;;;;12.30;10.55;;;11.20;99.90;;;;;;6127160;23;20195;-72
2021/09/05 04:32:12;;;;;;;11.32;8.40;;;11.20;99.90;;;;;;6125977;23;20200;-71
2021/09/05 04:34:39;;;;;;;12.15;8.32;;;11.20;99.90;;;;;;6126181;23;20247;-71
2021/09/05 04:37:07;;;;;;;14.82;9.02;;;11.20;99.90;;;;;;6126245;23;20657;-71
2021/09/05 04:39:34;;;;;;;13.77;9.00;;;11.20;99.90;;;;;;6125953;23;20215;-71
2021/09/05 04:42:00;;;;;;;12.90;9.48;;;11.20;99.90;;;;;;6126270;23;20235;-70
2021/09/05 04:44:27;;;;;;;17.25;9.35;;;11.20;99.90;;;;;;6126196;23;20239;-71
2021/09/05 04:46:54;;;;;;;15.55;9.00;;;11.20;99.90;;;;;;6126640;23;20179;-71
2021/09/05 04:49:20;;;;;;;13.40;8.18;;;11.20;99.90;;;;;;6125686;23;20611;-71
2021/09/05 04:51:47;;;;;;;12.90;8.77;;;11.20;99.90;;;;;;6126292;23;20259;-70
2021/09/05 04:54:15;;;;;;;12.20;8.32;;;11.20;99.90;;;;;;6126177;23;20575;-69
2021/09/05 04:56:41;;;;;;;13.52;8.05;;;11.20;99.90;;;;;;6126165;23;20215;-70
2021/09/05 04:59:08;;;;;;;13.93;8.65;;;11.20;99.90;;;;;;6126475;23;20216;-70
2021/09/05 05:01:35;;;;;;;13.40;8.50;;;11.20;99.90;;;;;;6125716;23;20208;-70
2021/09/05 05:04:01;;;;;;;14.32;8.23;;;11.20;99.90;;;;;;6125778;23;20183;-70
2021/09/05 05:06:28;;;;;;;16.05;8.80;;;11.20;99.90;;;;;;6126080;23;20184;-70
2021/09/05 05:08:54;;;;;;;12.65;8.20;;;11.20;99.90;;;;;;6125953;23;20238;-71
2021/09/05 05:11:22;;;;;;;9.80;7.75;;;11.20;99.90;;;;;;6126434;23;20274;-72
2021/09/05 05:13:51;;;;;;;12.43;8.43;;;11.20;99.90;;;;;;6126155;23;20219;-70
2021/09/05 05:16:18;;;;;;;11.63;7.43;;;11.30;99.90;;;;;;6125584;23;20188;-72
2021/09/05 05:18:44;;;;;;;12.98;8.20;;;11.30;99.90;;;;;;6125464;23;20188;-71
2021/09/05 05:21:11;;;;;;;14.85;7.95;;;11.30;99.90;;;;;;6125751;23;20670;-72
2021/09/05 05:23:38;;;;;;;13.88;8.82;;;11.30;99.90;;;;;;6125993;23;20258;-71
2021/09/05 05:26:05;;;;;;;12.68;8.10;;;11.40;99.90;;;;;;6126433;23;20184;-71
2021/09/05 05:28:33;;;;;;;13.00;9.13;;;11.40;99.90;;;;;;6126361;23;20219;-71
2021/09/05 05:31:00;;;;;;;12.23;7.80;;;11.40;99.90;;;;;;6125891;23;20200;-71
2021/09/05 05:33:26;;;;;;;10.50;7.60;;;11.40;99.90;;;;;;6135390;23;20202;-71
2021/09/05 05:35:53;;;;;;;13.95;8.20;;;11.40;99.90;;;;;;6125910;23;20238;-71
2021/09/05 05:38:20;;;;;;;11.57;7.35;;;11.40;99.90;;;;;;6126157;23;20279;-71
2021/09/05 05:40:47;;;;;;;14.88;7.32;;;11.50;99.90;;;;;;6125550;23;20200;-69
2021/09/05 05:43:13;;;;;;;13.82;8.00;;;11.50;99.90;;;;;;6126050;23;20191;-69
2021/09/05 05:45:42;;;;;;;11.13;7.53;;;11.60;99.90;;;;;;6126268;23;20550;-69
2021/09/05 05:48:09;;;;;;;10.77;7.13;;;11.60;99.90;;;;;;6125243;23;20183;-70
2021/09/05 05:50:35;;;;;;;8.80;7.28;;;11.70;99.90;;;;;;6125354;23;20626;-69
2021/09/05 05:53:02;;;;;;;9.65;7.35;;;11.70;99.90;;;;;;6125354;23;20522;-69
2021/09/05 05:55:29;;;;;;;9.63;7.07;;;11.70;99.90;;;;;;6135369;23;20183;-69
2021/09/05 05:57:56;;;;;;;8.35;6.95;;;11.80;99.90;;;;;;6126062;23;20243;-68
2021/09/05 06:00:25;;;;;;;12.07;6.97;;;11.80;99.90;;;;;;6125503;23;20532;-69
2021/09/05 06:02:53;;;;;;;12.45;6.93;;;11.80;99.90;;;;;;6125067;23;20164;-69
2021/09/05 06:05:21;;;;;;;8.52;7.22;;;11.90;99.90;;;;;;6125053;23;20206;-69
2021/09/05 06:07:47;;;;;;;7.03;6.30;;;11.90;99.90;;;;;;6125491;23;20629;-69
2021/09/05 06:10:14;;;;;;;7.38;6.05;;;11.90;99.90;;;;;;6125829;23;20235;-69
2021/09/05 06:12:41;;;;;;;6.00;5.30;;;12.00;99.90;;;;;;6125308;23;20187;-69
2021/09/05 06:15:09;;;;;;;8.30;5.75;;;12.00;99.90;;;;;;6125166;23;20207;-69
2021/09/05 06:17:36;;;;;;;11.30;6.63;;;12.00;99.90;;;;;;6125229;23;20330;-69
2021/09/05 06:20:06;;;;;;;6.53;5.85;;;12.10;99.90;;;;;;6124917;23;20290;-69
2021/09/05 06:22:32;;;;;;;6.70;6.07;;;12.10;99.90;;;;;;6125678;23;20490;-70
2021/09/05 06:24:59;;;;;;;6.28;5.68;;;12.20;99.90;;;;;;6125870;23;20188;-71
2021/09/05 06:27:25;;;;;;;5.80;5.30;;;12.20;99.90;;;;;;6125249;23;20184;-72
2021/09/05 06:29:52;;;;;;;6.65;6.05;;;12.20;99.90;;;;;;6125356;23;20243;-73
2021/09/05 06:32:19;;;;;;;6.88;5.45;;;12.20;99.90;;;;;;6124956;23;20208;-71
2021/09/05 06:34:45;;;;;;;5.93;5.32;;;12.30;99.90;;;;;;6125040;23;20203;-71
2021/09/05 06:37:13;;;;;;;6.07;4.95;;;12.40;99.90;;;;;;6125186;23;20184;-71
2021/09/05 06:39:40;;;;;;;6.55;4.95;;;12.50;99.90;;;;;;6125408;23;20482;-71
2021/09/05 06:42:09;;;;;;;6.90;5.82;;;12.60;99.90;;;;;;6125228;23;20208;-70
2021/09/05 06:44:35;;;;;;;5.50;5.18;;;12.60;99.90;;;;;;6125423;23;20180;-71
2021/09/05 06:47:02;;;;;;;6.57;4.35;;;12.60;99.90;;;;;;6124920;23;20195;-71
2021/09/05 06:49:29;;;;;;;4.22;3.92;;;12.70;99.90;;;;;;6124817;23;20226;-72
2021/09/05 06:51:55;;;;;;;5.28;4.50;;;12.70;99.90;;;;;;6125308;23;20255;-71
2021/09/05 06:54:23;;;;;;;8.80;5.05;;;12.80;99.90;;;;;;6125135;23;20203;-70
2021/09/05 06:56:50;;;;;;;6.30;4.68;;;12.80;99.90;;;;;;6125512;23;20184;-71
2021/09/05 06:59:17;;;;;;;4.55;4.10;;;12.90;99.90;;;;;;6125590;23;20514;-71
2021/09/05 07:01:43;;;;;;;4.55;4.18;;;12.90;99.90;;;;;;6124608;23;20595;-71
2021/09/05 07:04:11;;;;;;;7.10;5.38;;;13.00;99.90;;;;;;6124631;23;20184;-71
2021/09/05 07:06:38;;;;;;;7.10;4.47;;;13.00;99.90;;;;;;6125408;23;20180;-71
2021/09/05 07:09:05;;;;;;;5.13;3.70;;;13.10;99.90;;;;;;6125171;23;20203;-71
2021/09/05 07:11:33;;;;;;;4.80;4.28;;;13.20;99.90;;;;;;6125479;23;20233;-71
2021/09/05 07:13:59;;;;;;;4.80;4.47;;;13.20;99.90;;;;;;6125383;23;20203;-70
2021/09/05 07:16:26;;;;;;;3.83;3.72;;;13.30;99.90;;;;;;6124590;23;20619;-71
2021/09/05 07:18:53;;;;;;;5.37;4.87;;;13.30;99.90;;;;;;6124912;23;20187;-70
2021/09/05 07:21:20;;;;;;;4.70;4.37;;;13.40;99.90;;;;;;6134667;23;20447;-70
2021/09/05 07:23:47;;;;;;;4.47;4.07;;;13.60;99.90;;;;;;6125038;23;20423;-71
2021/09/05 07:26:13;;;;;;;4.63;3.90;;;13.70;99.90;;;;;;6125105;23;20906;-71
2021/09/05 07:28:41;;;;;;;5.20;4.90;;;13.80;99.90;;;;;;6125333;23;20423;-71
2021/09/05 07:31:08;;;;;;;4.60;4.20;;;13.90;99.90;;;;;;6124329;23;20447;-70
2021/09/05 07:33:34;;;;;;;6.27;4.37;;;14.00;99.90;;;;;;6124500;23;20427;-70
2021/09/05 07:36:01;;;;;;;5.17;4.67;;;14.00;99.90;;;;;;6125027;23;20443;-72
2021/09/05 07:38:28;;;;;;;4.17;3.87;;;14.10;99.90;;;;;;6125193;23;20447;-71
2021/09/05 07:40:54;;;;;;;4.70;4.30;;;14.30;99.90;;;;;;6125415;23;20961;-72
2021/09/05 07:43:21;;;;;;;4.80;4.50;;;14.40;99.90;;;;;;6124751;23;20882;-72
2021/09/05 07:45:49;;;;;;;4.70;4.33;;;14.40;99.90;;;;;;6124504;23;20503;-72
2021/09/05 07:48:16;;;;;;;3.97;3.77;;;14.50;99.90;;;;;;6124870;23;20423;-71
2021/09/05 07:50:43;;;;;;;4.70;4.30;;;14.60;99.90;;;;;;6124290;23;20455;-71
2021/09/05 07:53:09;;;;;;;4.10;3.80;;;14.60;99.90;;;;;;6125115;23;20424;-72
2021/09/05 07:55:36;;;;;;;4.30;4.00;;;14.50;99.90;;;;;;6124573;23;20948;-71
2021/09/05 07:58:02;;;;;;;4.93;4.53;;;14.40;99.90;;;;;;6124982;23;20428;-71
2021/09/05 08:00:29;;;;;;;6.87;5.20;;;14.40;99.90;;;;;;6124597;23;20451;-71
2021/09/05 08:02:57;;;;;;;4.97;4.67;;;14.40;99.90;;;;;;6124510;23;20412;-71
2021/09/05 08:05:24;;;;;;;5.40;4.90;;;14.30;99.90;;;;;;6123926;23;20960;-71
2021/09/05 08:07:50;;;;;;;4.80;4.40;;;14.30;99.90;;;;;;6124464;23;20881;-71
2021/09/05 08:10:17;;;;;;;5.00;4.63;;;14.20;99.90;;;;;;6124715;23;20424;-71
2021/09/05 08:12:44;;;;;;;4.30;4.10;;;14.20;99.90;;;;;;6124679;23;20431;-71
2021/09/05 08:15:11;;;;;;;4.93;4.60;;;14.20;99.90;;;;;;6124809;23;20454;-71
2021/09/05 08:17:38;;;;;;;6.43;5.83;;;14.30;99.90;;;;;;6124605;23;20486;-71
2021/09/05 08:20:07;;;;;;;5.27;4.93;;;14.30;99.90;;;;;;6125262;23;20513;-71
2021/09/05 08:22:34;;;;;;;4.60;4.40;;;14.40;99.90;;;;;;6126541;23;20748;-71
2021/09/05 08:25:00;;;;;;;4.93;4.53;;;14.50;99.90;;;;;;6126108;23;20423;-72
2021/09/05 08:27:27;;;;;;;5.10;4.60;;;14.50;99.90;;;;;;6126475;23;20431;-71
2021/09/05 08:29:53;;;;;;;4.60;4.30;;;14.50;99.90;;;;;;6126169;23;20428;-72
2021/09/05 08:32:20;;;;;;;5.30;5.00;;;14.50;99.90;;;;;;6125301;23;20777;-72
2021/09/05 08:34:47;;;;;;;4.70;4.40;;;14.50;99.90;;;;;;6125258;23;20719;-72
2021/09/05 08:37:15;;;;;;;4.90;4.50;;;14.60;99.90;;;;;;6126695;23;20423;-70
2021/09/05 08:39:41;;;;;;;5.23;4.83;;;14.70;99.90;;;;;;6135569;23;20890;-71
2021/09/05 08:42:08;;;;;;;4.07;3.87;;;14.70;99.90;;;;;;6126286;23;20440;-71
2021/09/05 08:44:35;;;;;;;4.33;3.70;;;14.80;99.90;;;;;;6126548;23;20424;-71
2021/09/05 08:47:02;;;;;;;4.77;4.40;;;15.00;99.90;;;;;;6126045;23;20423;-71
2021/09/05 08:49:34;;;;;;;13.50;6.30;;;15.00;99.90;;;;;;6125436;23;20570;-71
2021/09/05 08:52:01;;;;;;;3.80;3.60;;;15.00;99.90;;;;;;6126448;23;20738;-72
2021/09/05 08:54:29;;;;;;;4.87;4.50;;;14.90;99.90;;;;;;6125934;23;20455;-72
2021/09/05 08:56:56;;;;;;;6.63;5.67;;;14.90;99.90;;;;;;6126385;23;20444;-72
2021/09/05 08:59:23;;;;;;;4.57;4.17;;;15.00;99.90;;;;;;6126236;23;20475;-71
2021/09/05 09:01:53;;;;;;;5.30;4.90;;;15.10;99.90;;;;;;6125328;23;20785;-72
2021/09/05 09:04:20;;;;;;;4.70;4.40;;;15.20;99.90;;;;;;6125515;23;20419;-72
2021/09/05 09:06:47;;;;;;;5.30;4.90;;;15.30;99.90;;;;;;6126155;23;20431;-71
2021/09/05 09:09:14;;;;;;;5.40;5.00;;;15.40;99.90;;;;;;6125883;23;20475;-71
2021/09/05 09:11:51;;;;;;;4.80;4.50;;;15.50;99.90;;;;;;6125645;23;20953;-70
2021/09/05 09:14:18;;;;;;;4.70;4.40;;;15.50;99.90;;;;;;6125752;23;20423;-70
2021/09/05 09:16:46;;;;;;;5.47;4.97;;;15.60;99.90;;;;;;6125551;23;20427;-71
2021/09/05 09:19:26;;;;;;;4.03;3.93;;;15.60;99.90;;;;;;6125436;23;20427;-71
2021/09/05 09:21:53;;;;;;;4.60;4.30;;;15.80;99.90;;;;;;6125535;23;20452;-72
2021/09/05 09:24:21;;;;;;;4.37;4.07;;;15.80;99.90;;;;;;6125963;23;20785;-71
2021/09/05 09:27:02;;;;;;;7.07;4.10;;;15.90;99.90;;;;;;6126143;23;20431;-72
2021/09/05 09:29:29;;;;;;;5.70;4.40;;;16.00;99.90;;;;;;6125959;23;20408;-72
2021/09/05 09:32:02;;;;;;;5.30;4.80;;;16.10;99.90;;;;;;6124803;23;20455;-72
2021/09/05 09:34:29;;;;;;;5.37;4.60;;;16.20;99.90;;;;;;6125496;23;20447;-72
2021/09/05 09:36:57;;;;;;;5.03;4.63;;;16.30;99.90;;;;;;6125612;23;20450;-69
2021/09/05 09:39:23;;;;;;;4.93;4.67;;;16.30;99.90;;;;;;6122589;23;20517;-72
2021/09/05 09:41:50;;;;;;;5.00;4.70;;;16.30;99.90;;;;;;6125870;23;20527;-71
2021/09/05 09:44:18;;;;;;;5.17;4.77;;;16.30;99.90;;;;;;6125459;23;20424;-72
2021/09/05 09:46:45;;;;;;;5.40;5.00;;;16.30;99.90;;;;;;6125138;23;20475;-72
2021/09/05 09:49:13;;;;;;;4.90;4.60;;;16.40;99.90;;;;;;6125295;23;20719;-72
2021/09/05 09:51:41;;;;;;;6.30;4.37;;;16.50;99.90;;;;;;6125639;23;20494;-72
2021/09/05 09:54:08;;;;;;;8.73;5.57;;;16.60;99.90;;;;;;6125258;23;20419;-73
2021/09/05 09:56:35;;;;;;;6.20;5.37;;;16.60;99.90;;;;;;6125178;23;20480;-72
2021/09/05 09:59:04;;;;;;;5.13;4.83;;;16.70;99.90;;;;;;6125791;23;20484;-71
2021/09/05 10:01:34;;;;;;;4.90;4.23;;;16.80;99.90;;;;;;6124673;23;20522;-72
2021/09/05 10:04:03;;;;;;;10.60;6.03;;;16.80;99.90;;;;;;6125177;23;20525;-72
2021/09/05 10:06:31;;;;;;;5.87;5.47;;;16.80;99.90;;;;;;6125175;23;20778;-71
2021/09/05 10:09:02;;;;;;;5.93;5.33;;;16.90;99.90;;;;;;6125383;23;20435;-71
2021/09/05 10:11:30;;;;;;;5.13;4.73;;;17.10;99.90;;;;;;6125013;23;20442;-71
2021/09/05 10:13:58;;;;;;;6.23;5.63;;;17.30;99.90;;;;;;6124694;23;20463;-71
2021/09/05 10:16:25;;;;;;;5.10;4.60;;;17.50;99.90;;;;;;6124343;23;20510;-72
2021/09/05 10:18:56;;;;;;;5.63;5.10;;;17.60;99.90;;;;;;6124522;23;20428;-71
2021/09/05 10:21:23;;;;;;;5.10;4.70;;;17.60;99.90;;;;;;6125286;23;20503;-71
2021/09/05 10:23:52;;;;;;;5.60;5.13;;;17.60;99.90;;;;;;6124849;23;20428;-72
2021/09/05 10:26:19;;;;;;;5.97;5.47;;;17.50;99.90;;;;;;6124868;23;20439;-69
2021/09/05 10:28:48;;;;;;;5.53;5.23;;;17.50;99.90;;;;;;6125434;23;20443;-68
2021/09/05 10:31:23;;;;;;;5.40;5.00;;;17.50;99.90;;;;;;6124673;23;20452;-69
2021/09/05 10:33:50;;;;;;;5.60;5.10;;;17.50;99.90;;;;;;6125050;23;20740;-68
2021/09/05 10:36:19;;;;;;;6.03;5.50;;;17.50;99.90;;;;;;6125108;23;20455;-71
2021/09/05 10:38:47;;;;;;;5.87;5.53;;;17.50;99.90;;;;;;6125431;23;20450;-71
2021/09/05 10:41:15;;;;;;;6.10;5.53;;;17.40;99.90;;;;;;6125234;23;20771;-71
2021/09/05 10:44:06;;;;;;;5.87;5.37;;;17.40;99.90;;;;;;6124212;23;20431;-71
2021/09/05 10:46:36;;;;;;;7.83;5.27;;;17.50;99.90;;;;;;6124963;23;20428;-71
2021/09/05 10:49:05;;;;;;;7.17;5.37;;;17.50;99.90;;;;;;6125006;23;20427;-72
2021/09/05 10:51:37;;;;;;;4.70;4.40;;;17.60;99.90;;;;;;6124794;23;20458;-69
2021/09/05 10:54:06;;;;;;;6.30;5.80;;;17.70;99.90;;;;;;6124832;23;20857;-69
2021/09/05 10:56:34;;;;;;;5.90;5.50;;;17.80;99.90;;;;;;6124789;23;20447;-69
2021/09/05 10:59:04;;;;;;;7.63;5.87;;;17.80;99.90;;;;;;6125192;23;20452;-69
2021/09/05 11:01:33;;;;;;;6.13;5.30;;;17.90;99.90;;;;;;6124169;23;20464;-69
2021/09/05 11:04:29;;;;;;;5.63;5.23;;;18.00;99.90;;;;;;6124339;23;20423;-69
2021/09/05 11:07:02;;;;;;;7.60;5.13;;;18.10;99.90;;;;;;6124801;23;20414;-69
2021/09/05 11:09:59;;;;;;;5.50;5.13;;;18.20;99.90;;;;;;6124867;23;20412;-69
2021/09/05 11:12:43;;;;;;;5.63;5.13;;;18.20;99.90;;;;;;6123940;23;20443;-69
2021/09/05 11:15:16;;;;;;;4.97;4.60;;;18.20;99.90;;;;;;6125165;23;20432;-69
2021/09/05 11:17:43;;;;;;;5.60;5.20;;;18.20;99.90;;;;;;6124327;23;20416;-69
2021/09/05 11:20:11;;;;;;;5.83;5.40;;;18.20;99.90;;;;;;6124345;23;20427;-71
2021/09/05 11:22:43;;;;;;;5.40;5.10;;;18.20;99.90;;;;;;6125069;23;20427;-71
2021/09/05 11:25:16;;;;;;;5.50;5.00;;;18.20;99.90;;;;;;6124613;23;20436;-71
2021/09/05 11:27:49;;;;;;;7.43;5.07;;;18.30;99.90;;;;;;6124716;23;20459;-71
2021/09/05 11:30:16;;;;;;;5.33;4.70;;;18.40;99.90;;;;;;6125104;23;20408;-70
2021/09/05 11:32:43;;;;;;;6.80;4.90;;;18.40;99.90;;;;;;6123880;23;20435;-70
2021/09/05 11:35:11;;;;;;;5.40;5.00;;;18.50;99.90;;;;;;6124078;23;20976;-71
2021/09/05 11:37:42;;;;;;;6.20;5.60;;;18.70;99.90;;;;;;6124885;23;20724;-71
2021/09/05 11:40:11;;;;;;;4.43;4.13;;;18.70;99.90;;;;;;6124377;23;20446;-71
2021/09/05 11:42:42;;;;;;;8.50;5.10;;;18.80;99.90;;;;;;6124673;23;20438;-71
2021/09/05 11:45:10;;;;;;;5.73;5.10;;;18.90;99.90;;;;;;6125097;23;20405;-72
2021/09/05 11:47:38;;;;;;;4.83;4.43;;;19.00;99.90;;;;;;6124506;23;20455;-71
2021/09/05 11:50:06;;;;;;;5.27;4.80;;;19.00;99.90;;;;;;6123907;23;20545;-72
2021/09/05 11:52:34;;;;;;;5.40;5.00;;;19.20;99.90;;;;;;6124257;23;20924;-72
2021/09/05 11:55:05;;;;;;;4.50;4.20;;;19.20;99.90;;;;;;6125895;23;20427;-71
2021/09/05 11:57:32;;;;;;;5.13;4.73;;;19.20;99.90;;;;;;6125955;23;20423;-71
2021/09/05 12:00:02;;;;;;;5.30;4.80;;;19.20;99.90;;;;;;6126350;23;20474;-68
2021/09/05 12:02:30;;;;;;;5.90;5.30;;;19.20;99.90;;;;;;6125573;23;20465;-68
2021/09/05 12:04:58;;;;;;;4.90;4.60;;;19.20;99.90;;;;;;6126272;23;20728;-68
2021/09/05 12:07:26;;;;;;;4.83;4.53;;;19.20;99.90;;;;;;6126741;23;20423;-68
2021/09/05 12:10:12;;;;;;;5.13;4.77;;;19.40;99.90;;;;;;6126687;23;20440;-69
2021/09/05 12:12:40;;;;;;;5.20;4.80;;;19.50;99.90;;;;;;6126232;23;20408;-68
2021/09/05 12:15:15;;;;;;;5.30;4.93;;;19.50;99.90;;;;;;6129649;23;20391;-70
2021/09/05 12:17:46;;;;;;;5.63;5.13;;;19.50;99.90;;;;;;6126006;23;20756;-68
2021/09/05 12:20:14;;;;;;;5.00;4.53;;;19.60;99.90;;;;;;6125921;23;20518;-68
2021/09/05 12:22:43;;;;;;;4.73;4.47;;;19.60;99.90;;;;;;6125602;23;20758;-68
2021/09/05 12:25:16;;;;;;;5.77;5.30;;;19.70;99.90;;;;;;6126721;23;20531;-68
2021/09/05 12:27:58;;;;;;;6.33;5.83;;;19.80;99.90;;;;;;6126757;23;20408;-68
2021/09/05 12:30:26;;;;;;;5.73;5.23;;;19.90;99.90;;;;;;6126454;23;20474;-69
2021/09/05 12:33:07;;;;;;;10.97;7.63;;;19.90;99.90;;;;;;6126147;23;20447;-70
2021/09/05 12:35:34;;;;;;;7.37;6.77;;;20.00;99.90;;;;;;6126012;23;20482;-70
2021/09/05 12:38:09;;;;;;;6.87;6.27;;;20.10;99.90;;;;;;6126865;23;20728;-69
2021/09/05 12:40:39;;;;;;;8.90;6.90;;;20.20;99.90;;;;;;6126682;23;20442;-69
2021/09/05 12:43:06;;;;;;;7.40;6.80;;;20.20;99.90;;;;;;6126604;23;20423;-69
2021/09/05 12:45:33;;;;;;;6.83;6.23;;;20.30;99.90;;;;;;6126563;23;20427;-69
2021/09/05 12:48:13;;;;;;;7.57;6.77;;;20.50;99.90;;;;;;6125523;23;20871;-69
2021/09/05 12:50:40;;;;;;;6.63;5.97;;;20.60;99.90;;;;;;6125501;23;20450;-69
2021/09/05 12:53:16;;;;;;;6.53;6.10;;;20.60;99.90;;;;;;6126380;23;20431;-69
2021/09/05 12:55:44;;;;;;;7.47;6.60;;;20.60;99.90;;;;;;6126280;23;20522;-68
2021/09/05 12:58:11;;;;;;;10.00;6.93;;;20.70;99.90;;;;;;6126143;23;20464;-68
2021/09/05 13:00:39;;;;;;;9.37;8.43;;;20.70;99.90;;;;;;6126315;23;20575;-70
2021/09/05 13:03:07;;;;;;;9.93;8.00;;;20.80;99.90;;;;;;6125894;23;20424;-72
2021/09/05 13:05:35;;;;;;;8.33;7.30;;;20.80;99.90;;;;;;6125619;23;20432;-71
2021/09/05 13:08:02;;;;;;;7.03;6.33;;;20.80;99.90;;;;;;6126007;23;20440;-72
2021/09/05 13:10:29;;;;;;;7.50;6.80;;;20.70;99.90;;;;;;6126474;23;20482;-71
2021/09/05 13:12:59;;;;;;;7.10;6.50;;;20.70;99.90;;;;;;6126035;23;20823;-70
2021/09/05 13:15:25;;;;;;;8.43;7.60;;;20.60;99.90;;;;;;6126441;23;20431;-71
2021/09/05 13:17:52;;;;;;;9.50;8.50;;;20.40;99.90;;;;;;6125603;23;20423;-71
2021/09/05 13:20:19;;;;;;;8.50;7.80;;;20.20;99.90;;;;;;6125462;23;20431;-71
2021/09/05 13:22:46;;;;;;;8.57;7.87;;;20.10;99.90;;;;;;6125976;23;20482;-71
2021/09/05 13:25:13;;;;;;;9.23;8.33;;;20.00;99.90;;;;;;6125881;23;20420;-71
2021/09/05 13:27:40;;;;;;;10.63;8.30;;;20.00;99.90;;;;;;6126010;23;20435;-68
2021/09/05 13:30:11;;;;;;;9.20;8.40;;;20.20;99.90;;;;;;6126072;23;20419;-69
2021/09/05 13:32:38;;;;;;;10.70;9.63;;;20.40;99.90;;;;;;6125572;23;20420;-68
2021/09/05 13:35:05;;;;;;;10.97;9.87;;;20.50;99.90;;;;;;6125351;23;20471;-69
2021/09/05 13:37:32;;;;;;;9.90;8.90;;;20.50;99.90;;;;;;6125774;23;20463;-68
2021/09/05 13:39:58;;;;;;;9.80;8.80;;;20.60;99.90;;;;;;6126224;23;20714;-68
2021/09/05 13:42:25;;;;;;;10.37;9.33;;;20.50;99.90;;;;;;6125499;23;20754;-68
2021/09/05 13:44:52;;;;;;;11.60;9.63;;;20.40;99.90;;;;;;6125960;23;20482;-68
2021/09/05 13:47:23;;;;;;;10.87;9.87;;;20.30;99.90;;;;;;6125112;23;20420;-70
2021/09/05 13:49:50;;;;;;;13.20;10.10;;;20.30;99.90;;;;;;6127572;23;20502;-71
2021/09/05 13:52:17;;;;;;;14.53;10.73;;;20.20;99.90;;;;;;6125832;23;20451;-71
2021/09/05 13:54:44;;;;;;;12.87;10.73;;;20.10;99.90;;;;;;6126074;23;20483;-72
2021/09/05 13:57:11;;;;;;;13.43;10.90;;;20.10;99.90;;;;;;6125815;23;20514;-71
2021/09/05 13:59:38;;;;;;;13.17;11.30;;;20.10;99.90;;;;;;6126049;23;20424;-71
2021/09/05 14:02:05;;;;;;;13.77;11.10;;;20.10;99.90;;;;;;6124648;23;20527;-71
2021/09/05 14:04:33;;;;;;;14.20;11.30;;;20.10;99.90;;;;;;6125182;23;20431;-71
2021/09/05 14:07:00;;;;;;;12.70;10.73;;;20.00;99.90;;;;;;6125848;23;20423;-71
2021/09/05 14:09:26;;;;;;;12.63;10.63;;;20.00;99.90;;;;;;6125347;23;20918;-71
2021/09/05 14:11:53;;;;;;;13.60;11.20;;;19.90;99.90;;;;;;6126097;23;20744;-71
2021/09/05 14:14:20;;;;;;;13.47;10.10;;;19.90;99.90;;;;;;6125338;23;20424;-71
2021/09/05 14:16:47;;;;;;;12.27;10.43;;;19.80;99.90;;;;;;6125039;23;20447;-71
2021/09/05 14:19:14;;;;;;;14.00;10.10;;;19.80;99.90;;;;;;6125440;23;20486;-70
2021/09/05 14:21:42;;;;;;;12.90;10.50;;;19.80;99.90;;;;;;6125371;23;20444;-71
2021/09/05 14:24:08;;;;;;;11.83;8.57;;;19.80;99.90;;;;;;6125355;23;20478;-72
2021/09/05 14:26:36;;;;;;;12.70;10.37;;;19.90;99.90;;;;;;6125300;23;20428;-71
2021/09/05 14:29:08;;;;;;;14.10;10.60;;;19.90;99.90;;;;;;6125049;23;20553;-68
2021/09/05 14:31:41;;;;;;;11.87;10.23;;;20.00;99.90;;;;;;6125043;23;20447;-69
2021/09/05 14:48:00;;;;;;;10.73;9.23;;;20.00;99.90;;;;;;6125072;23;20524;-73
2021/09/05 14:50:40;;;;;;;10.80;9.80;;;20.00;99.90;;;;;;6124785;23;20522;-71
2021/09/05 14:55:54;;;;;;;11.03;10.03;;;20.00;99.90;;;;;;6125463;23;20402;-70
2021/09/05 14:58:21;;;;;;;10.90;9.80;;;20.10;99.90;;;;;;6125262;23;20470;-70
2021/09/05 15:00:53;;;;;;;10.43;8.60;;;20.00;99.90;;;;;;6124525;23;20973;-70
2021/09/05 15:03:26;;;;;;;10.20;9.17;;;20.10;99.90;;;;;;6125147;23;20874;-70
2021/09/05 15:11:22;;;;;;;10.83;9.47;;;20.10;99.90;;;;;;6124912;23;20442;-68
2021/09/05 15:13:49;;;;;;;10.53;9.40;;;20.00;99.90;;;;;;6125111;23;20455;-69
2021/09/05 15:16:16;;;;;;;10.43;9.33;;;20.00;99.90;;;;;;6124357;23;20558;-69
2021/09/05 15:18:42;;;;;;;11.10;9.90;;;20.00;99.90;;;;;;6124848;23;20498;-69
2021/09/05 15:21:11;;;;;;;12.07;10.87;;;20.00;99.90;;;;;;6124910;23;20448;-71
2021/09/05 15:23:43;;;;;;;11.73;10.47;;;20.10;99.90;;;;;;6124695;23;20506;-71
2021/09/05 15:26:12;;;;;;;13.80;10.70;;;20.00;99.90;;;;;;6125601;23;20408;-71
2021/09/05 15:28:43;;;;;;;12.30;9.60;;;20.00;99.90;;;;;;6125233;23;20450;-71
2021/09/05 15:31:13;;;;;;;10.20;8.60;;;20.00;99.90;;;;;;6124836;23;20457;-71
2021/09/05 15:36:31;;;;;;;8.97;8.23;;;20.00;99.90;;;;;;6120631;23;20817;-70
2021/09/05 15:39:16;;;;;;;9.77;8.87;;;20.00;99.90;;;;;;6125267;23;20403;-71
2021/09/05 15:50:15;;;;;;;10.90;9.80;;;19.90;99.90;;;;;;6125193;23;20435;-71
2021/09/05 15:53:03;;;;;;;10.20;9.30;;;19.80;99.90;;;;;;6124518;23;20969;-70
2021/09/05 15:55:34;;;;;;;10.80;9.80;;;19.80;99.90;;;;;;6124620;23;20411;-70
2021/09/05 15:58:00;;;;;;;11.10;9.30;;;19.80;99.90;;;;;;6124959;23;20432;-71
2021/09/05 16:00:30;;;;;;;10.13;9.10;;;19.80;99.90;;;;;;6124668;23;20443;-71
2021/09/05 16:03:08;;;;;;;10.07;9.13;;;19.70;99.90;;;;;;6124612;23;20427;-70
2021/09/05 16:05:54;;;;;;;13.63;9.40;;;19.70;99.90;;;;;;6124525;23;20766;-70
2021/09/05 16:16:38;;;;;;;10.33;9.33;;;19.60;99.90;;;;;;6123906;23;20567;-71
2021/09/05 16:19:05;;;;;;;11.00;8.53;;;19.70;99.90;;;;;;6123967;23;20424;-73
2021/09/05 16:21:32;;;;;;;10.43;9.33;;;19.60;99.90;;;;;;6128416;23;20439;-73
2021/09/05 16:23:59;;;;;;;10.50;9.40;;;19.60;99.90;;;;;;6128579;23;20755;-72
2021/09/05 16:26:27;;;;;;;11.17;8.60;;;19.60;99.90;;;;;;6124539;23;20475;-72
2021/09/05 16:28:57;;;;;;;9.57;8.77;;;19.50;99.90;;;;;;6125110;23;20807;-71
2021/09/05 16:31:23;;;;;;;9.80;8.87;;;19.40;99.90;;;;;;6124214;23;20444;-71
2021/09/05 16:33:53;;;;;;;11.40;10.17;;;19.40;99.90;;;;;;6124322;23;20490;-71
2021/09/05 16:36:42;;;;;;;9.23;7.90;;;19.30;99.90;;;;;;6125903;23;20427;-72
2021/09/05 16:41:53;;;;;;;14.10;10.10;;;19.20;99.90;;;;;;6124200;23;20478;-69
2021/09/05 16:44:20;;;;;;;9.77;8.97;;;19.10;99.90;;;;;;6126084;23;20419;-69
2021/09/05 16:46:47;;;;;;;10.20;8.80;;;19.10;99.90;;;;;;6126037;23;20862;-69
2021/09/05 16:49:13;;;;;;;12.73;9.17;;;19.10;99.90;;;;;;6125956;23;20444;-69
2021/09/05 16:51:40;;;;;;;13.53;8.93;;;19.00;99.90;;;;;;6126327;23;20506;-69
2021/09/05 16:54:06;;;;;;;13.50;10.40;;;19.00;99.90;;;;;;6126126;23;20799;-69
2021/09/05 16:56:33;;;;;;;13.10;10.20;;;18.90;99.90;;;;;;6126228;23;20485;-69
2021/09/05 16:59:01;;;;;;;10.30;8.30;;;18.90;99.90;;;;;;6126117;23;20423;-68
2021/09/05 17:01:28;;;;;;;12.83;9.53;;;18.90;99.90;;;;;;6125659;23;20779;-68
2021/09/05 17:03:54;;;;;;;10.63;9.57;;;18.80;99.90;;;;;;6125643;23;20427;-69
2021/09/05 17:06:21;;;;;;;12.33;10.10;;;18.80;99.90;;;;;;6126761;23;20423;-68
2021/09/05 17:08:48;;;;;;;13.30;9.07;;;18.70;99.90;;;;;;6126394;23;20423;-68
2021/09/05 17:11:14;;;;;;;10.10;8.60;;;18.60;99.90;;;;;;6125957;23;20818;-68
2021/09/05 17:13:41;;;;;;;11.73;8.93;;;18.60;99.90;;;;;;6126030;23;20519;-68
2021/09/05 17:16:09;;;;;;;11.00;9.20;;;18.60;99.90;;;;;;6125709;23;20541;-68
2021/09/05 17:18:35;;;;;;;12.87;9.80;;;18.50;99.90;;;;;;6125223;23;20946;-68
2021/09/05 17:21:02;;;;;;;11.00;9.80;;;18.40;99.90;;;;;;6125514;23;20530;-69
2021/09/05 17:23:29;;;;;;;10.50;9.23;;;18.40;99.90;;;;;;6125986;23;20424;-68
2021/09/05 17:25:55;;;;;;;13.57;9.37;;;18.30;99.90;;;;;;6126176;23;20428;-69
2021/09/05 17:28:22;;;;;;;9.70;8.80;;;18.30;99.90;;;;;;6126463;23;20491;-69
2021/09/05 17:30:49;;;;;;;10.60;9.50;;;18.20;99.90;;;;;;6122765;23;20455;-69
2021/09/05 17:33:17;;;;;;;11.07;9.90;;;18.10;99.90;;;;;;6125992;23;20424;-68
2021/09/05 17:35:44;;;;;;;11.57;9.10;;;18.10;99.90;;;;;;6125601;23;20427;-68